Time;durP1;ratioP1;P1;durP2;ratioP2;P2;SDS_P1;SDS_P2;PMS_P1;PMS_P2;Temp;Humidity;BMP_temperature;BMP_pressure;BME280_temperature;BME280_humidity;BME280_pressure;Samples;Min_cycle;Max_cycle;Signal;HPM_P1;HPM_P2
2021/07/22 00:00:26;;;;;;;15.77;14.00;;;17.80;99.90;;;;;;4935747;29;20236;-49
2021/07/22 00:02:54;;;;;;;15.95;13.77;;;17.80;99.90;;;;;;4935556;29;20208;-47
2021/07/22 00:05:24;;;;;;;16.33;13.90;;;17.80;99.90;;;;;;4935861;29;20212;-46
2021/07/22 00:07:52;;;;;;;18.00;14.70;;;17.80;99.90;;;;;;4935587;29;20338;-48
2021/07/22 00:10:21;;;;;;;16.70;13.80;;;17.80;99.90;;;;;;4935828;29;20244;-47
2021/07/22 00:12:49;;;;;;;15.48;13.02;;;17.60;99.90;;;;;;4935676;29;20310;-48
2021/07/22 00:15:16;;;;;;;16.25;14.35;;;17.60;99.90;;;;;;4935782;29;20323;-49
2021/07/22 00:17:44;;;;;;;16.95;13.25;;;17.60;99.90;;;;;;4935593;29;20312;-48
2021/07/22 00:20:13;;;;;;;15.95;14.02;;;17.50;99.90;;;;;;4935333;29;20246;-50
2021/07/22 00:22:42;;;;;;;16.08;13.35;;;17.50;99.90;;;;;;4935775;29;20208;-50
2021/07/22 00:25:11;;;;;;;18.73;14.25;;;17.50;99.90;;;;;;4935490;29;20307;-49
2021/07/22 00:27:39;;;;;;;16.95;14.77;;;17.40;99.90;;;;;;4935587;29;20644;-50
2021/07/22 00:30:08;;;;;;;15.13;13.55;;;17.40;99.90;;;;;;4935420;29;20339;-50
2021/07/22 00:32:36;;;;;;;16.27;14.57;;;17.40;99.90;;;;;;4935291;29;20255;-49
2021/07/22 00:35:05;;;;;;;16.65;13.38;;;17.40;99.90;;;;;;4935517;29;20638;-48
2021/07/22 00:37:32;;;;;;;15.23;13.50;;;17.40;99.90;;;;;;4935379;29;20255;-50
2021/07/22 00:40:02;;;;;;;17.25;13.20;;;17.40;99.90;;;;;;4935168;29;20226;-48
2021/07/22 00:42:59;;;;;;;15.02;13.48;;;17.40;99.90;;;;;;4935207;29;20675;-50
2021/07/22 00:45:28;;;;;;;17.90;13.95;;;17.40;99.90;;;;;;4935148;29;20665;-51
2021/07/22 00:47:58;;;;;;;15.52;12.95;;;17.40;99.90;;;;;;4935270;29;20215;-48
2021/07/22 00:50:27;;;;;;;14.65;12.65;;;17.40;99.90;;;;;;4935288;29;20669;-52
2021/07/22 00:52:55;;;;;;;13.93;11.90;;;17.30;99.90;;;;;;4935142;29;20259;-48
2021/07/22 00:55:25;;;;;;;16.05;13.20;;;17.30;99.90;;;;;;4935071;29;20299;-53
2021/07/22 00:57:53;;;;;;;14.45;12.95;;;17.30;99.90;;;;;;4935076;29;20211;-51
2021/07/22 01:00:22;;;;;;;16.13;12.70;;;17.30;99.90;;;;;;4934881;29;20212;-46
2021/07/22 01:02:50;;;;;;;14.85;11.80;;;17.20;99.90;;;;;;4935163;29;20246;-48
2021/07/22 01:05:18;;;;;;;13.52;11.13;;;17.20;99.90;;;;;;4935012;29;20299;-46
2021/07/22 01:07:46;;;;;;;14.25;12.85;;;17.20;99.90;;;;;;4934758;29;20726;-47
2021/07/22 01:10:14;;;;;;;16.92;12.07;;;17.10;99.90;;;;;;4934841;29;20508;-50
2021/07/22 01:12:43;;;;;;;16.58;12.15;;;17.10;99.90;;;;;;4934885;29;20211;-49
2021/07/22 01:15:12;;;;;;;16.27;12.15;;;17.10;99.90;;;;;;4934867;29;20308;-48
2021/07/22 01:17:43;;;;;;;14.38;12.85;;;17.10;99.90;;;;;;4934876;29;20239;-49
2021/07/22 01:20:16;;;;;;;16.65;12.23;;;17.00;99.90;;;;;;4934966;29;20565;-52
2021/07/22 01:22:45;;;;;;;15.55;11.60;;;17.00;99.90;;;;;;4934674;29;20212;-46
2021/07/22 01:25:14;;;;;;;15.55;13.10;;;16.90;99.90;;;;;;4934749;29;20755;-49
2021/07/22 01:27:42;;;;;;;15.95;11.93;;;16.90;99.90;;;;;;4935511;29;20212;-50
2021/07/22 01:30:11;;;;;;;13.93;12.50;;;16.90;99.90;;;;;;4935711;29;20247;-51
2021/07/22 01:32:39;;;;;;;19.45;12.35;;;16.90;99.90;;;;;;4934605;29;20212;-52
2021/07/22 01:35:09;;;;;;;16.50;12.50;;;16.90;99.90;;;;;;4935332;29;20220;-48
2021/07/22 01:37:40;;;;;;;13.65;12.05;;;16.80;99.90;;;;;;4934828;29;20234;-48
2021/07/22 01:40:09;;;;;;;15.45;13.43;;;16.80;99.90;;;;;;4934866;29;20215;-49
2021/07/22 01:42:37;;;;;;;14.65;11.90;;;16.80;99.90;;;;;;4934729;29;20240;-51
2021/07/22 01:45:07;;;;;;;12.57;11.27;;;16.80;99.90;;;;;;4934719;29;20234;-48
2021/07/22 01:47:35;;;;;;;13.48;11.82;;;16.70;99.90;;;;;;4934479;29;20251;-51
2021/07/22 01:50:04;;;;;;;15.27;12.13;;;16.70;99.90;;;;;;4934675;29;20203;-51
2021/07/22 01:52:32;;;;;;;15.32;12.15;;;16.60;99.90;;;;;;4934749;29;20236;-50
2021/07/22 01:55:01;;;;;;;13.15;11.85;;;16.60;99.90;;;;;;4934729;29;20287;-50
2021/07/22 01:57:29;;;;;;;14.85;13.27;;;16.60;99.90;;;;;;4934617;29;20295;-49
2021/07/22 02:00:04;;;;;;;15.02;11.88;;;16.60;99.90;;;;;;4934550;29;20299;-47
2021/07/22 02:02:32;;;;;;;14.75;12.93;;;16.60;99.90;;;;;;4934654;29;20216;-45
2021/07/22 02:05:00;;;;;;;14.32;12.82;;;16.60;99.90;;;;;;4934536;29;20219;-49
2021/07/22 02:07:28;;;;;;;16.33;13.10;;;16.50;99.90;;;;;;4934461;29;20246;-50
2021/07/22 02:09:56;;;;;;;15.73;12.27;;;16.50;99.90;;;;;;4933879;29;20567;-50
2021/07/22 02:12:25;;;;;;;15.38;12.73;;;16.50;99.90;;;;;;4934447;29;20243;-54
2021/07/22 02:14:53;;;;;;;16.75;12.60;;;16.40;99.90;;;;;;4934414;29;20340;-54
2021/07/22 02:17:21;;;;;;;13.68;12.23;;;16.40;99.90;;;;;;4934568;29;20247;-47
2021/07/22 02:19:49;;;;;;;14.55;12.68;;;16.40;99.90;;;;;;4934318;29;20208;-49
2021/07/22 02:22:17;;;;;;;13.70;12.27;;;16.40;99.90;;;;;;4934276;29;20343;-48
2021/07/22 02:24:45;;;;;;;14.88;12.18;;;16.30;99.90;;;;;;4935511;29;20230;-49
2021/07/22 02:27:13;;;;;;;14.38;12.93;;;16.40;99.90;;;;;;4937617;29;20220;-47
2021/07/22 02:29:43;;;;;;;14.88;12.82;;;16.40;99.90;;;;;;4937597;29;20216;-49
2021/07/22 02:32:11;;;;;;;13.98;12.30;;;16.40;99.90;;;;;;4937730;29;20222;-51
2021/07/22 02:34:39;;;;;;;16.20;13.15;;;16.40;99.90;;;;;;4937678;29;20303;-54
2021/07/22 02:37:07;;;;;;;16.95;13.32;;;16.40;99.90;;;;;;4937533;29;20222;-53
2021/07/22 02:39:38;;;;;;;16.05;13.77;;;16.40;99.90;;;;;;4937601;29;20211;-51
2021/07/22 02:42:06;;;;;;;13.98;12.45;;;16.40;99.90;;;;;;4937358;29;20228;-52
2021/07/22 02:44:38;;;;;;;16.23;13.18;;;16.30;99.90;;;;;;4937532;29;20235;-51
2021/07/22 02:47:12;;;;;;;21.00;13.25;;;16.30;99.90;;;;;;4937535;29;20640;-52
2021/07/22 02:49:42;;;;;;;15.63;12.40;;;16.20;99.90;;;;;;4937402;29;20235;-49
2021/07/22 02:52:10;;;;;;;17.48;13.65;;;16.20;99.90;;;;;;4937248;29;20204;-50
2021/07/22 02:54:38;;;;;;;17.33;14.32;;;16.20;99.90;;;;;;4937281;29;20299;-48
2021/07/22 02:57:06;;;;;;;14.88;13.35;;;16.20;99.90;;;;;;4937454;29;20299;-47
2021/07/22 02:59:34;;;;;;;20.95;14.13;;;16.10;99.90;;;;;;4937131;29;20219;-52
2021/07/22 03:02:02;;;;;;;14.73;12.93;;;16.10;99.90;;;;;;4937110;29;20640;-50
2021/07/22 03:04:32;;;;;;;14.60;13.10;;;16.10;99.90;;;;;;4937112;29;20639;-51
2021/07/22 03:06:59;;;;;;;15.00;13.35;;;16.10;99.90;;;;;;4936930;29;20509;-51
2021/07/22 03:09:27;;;;;;;19.27;13.15;;;16.10;99.90;;;;;;4936841;29;20254;-49
2021/07/22 03:11:55;;;;;;;17.55;14.02;;;16.10;99.90;;;;;;4937053;29;20246;-52
2021/07/22 03:14:23;;;;;;;19.38;17.27;;;16.10;99.90;;;;;;4936903;29;20223;-48
2021/07/22 03:16:51;;;;;;;15.85;14.23;;;16.10;99.90;;;;;;4936871;29;20216;-47
2021/07/22 03:19:20;;;;;;;16.77;14.90;;;16.00;99.90;;;;;;4936771;29;20258;-50
2021/07/22 03:21:49;;;;;;;19.98;13.23;;;16.00;99.90;;;;;;4936932;29;20238;-49
2021/07/22 03:24:17;;;;;;;18.60;15.20;;;15.90;99.90;;;;;;4936871;29;20307;-49
2021/07/22 03:26:45;;;;;;;17.13;15.32;;;15.90;99.90;;;;;;4936721;29;20250;-49
2021/07/22 03:29:14;;;;;;;16.23;13.77;;;15.80;99.90;;;;;;4936483;29;20622;-51
2021/07/22 03:31:42;;;;;;;15.20;12.85;;;15.80;99.90;;;;;;4936444;29;20218;-50
2021/07/22 03:34:11;;;;;;;21.13;15.60;;;15.90;99.90;;;;;;4936318;29;20550;-49
2021/07/22 03:36:39;;;;;;;20.27;15.05;;;15.90;99.90;;;;;;4935372;29;20212;-48
2021/07/22 03:39:08;;;;;;;15.63;13.82;;;15.90;99.90;;;;;;4936574;29;20295;-47
2021/07/22 03:41:36;;;;;;;16.63;13.70;;;15.90;99.90;;;;;;4936276;29;20219;-49
2021/07/22 03:44:05;;;;;;;18.00;14.70;;;15.80;99.90;;;;;;4936238;29;20305;-51
2021/07/22 03:46:33;;;;;;;16.60;14.80;;;15.90;99.90;;;;;;4936250;29;20712;-51
2021/07/22 03:49:01;;;;;;;17.63;13.73;;;15.90;99.90;;;;;;4936393;29;20307;-50
2021/07/22 03:51:29;;;;;;;20.08;13.50;;;15.90;99.90;;;;;;4936107;29;20318;-50
2021/07/22 03:53:57;;;;;;;17.20;12.93;;;15.90;99.90;;;;;;4936197;29;20295;-48
2021/07/22 03:56:27;;;;;;;17.95;13.50;;;15.90;99.90;;;;;;4936098;29;20298;-47
2021/07/22 03:58:54;;;;;;;15.40;13.15;;;16.00;99.90;;;;;;4936003;29;20302;-49
2021/07/22 04:01:22;;;;;;;17.90;14.60;;;15.90;99.90;;;;;;4936008;29;20366;-48
2021/07/22 04:03:52;;;;;;;21.60;13.98;;;16.00;99.90;;;;;;4935603;29;20411;-49
2021/07/22 04:06:20;;;;;;;20.13;14.57;;;16.00;99.90;;;;;;4935723;29;20263;-51
2021/07/22 04:08:48;;;;;;;17.10;15.23;;;16.00;99.90;;;;;;4935412;29;20286;-49
2021/07/22 04:11:16;;;;;;;15.05;13.48;;;16.00;99.90;;;;;;4935740;29;20669;-48
2021/07/22 04:13:45;;;;;;;17.70;14.65;;;16.10;99.90;;;;;;4935986;29;20193;-49
2021/07/22 04:16:13;;;;;;;17.15;15.00;;;16.10;99.90;;;;;;4935460;29;20216;-49
2021/07/22 04:18:41;;;;;;;17.38;14.48;;;16.20;99.90;;;;;;4936047;29;20213;-54
2021/07/22 04:21:09;;;;;;;17.77;15.20;;;16.20;99.90;;;;;;4935687;29;20220;-51
2021/07/22 04:23:37;;;;;;;19.08;16.05;;;16.30;99.90;;;;;;4935588;29;20322;-48
2021/07/22 04:26:05;;;;;;;19.35;14.82;;;16.30;99.90;;;;;;4936338;29;20254;-51
2021/07/22 04:28:33;;;;;;;16.65;14.75;;;16.40;99.90;;;;;;4935857;29;20303;-54
2021/07/22 04:31:03;;;;;;;17.33;14.77;;;16.40;99.90;;;;;;4935979;29;20283;-52
2021/07/22 04:33:31;;;;;;;19.67;14.57;;;16.50;99.90;;;;;;4936545;29;20259;-50
2021/07/22 04:35:59;;;;;;;16.50;14.55;;;16.50;99.90;;;;;;4936580;29;20220;-51
2021/07/22 04:38:27;;;;;;;17.10;15.15;;;16.50;99.90;;;;;;4935422;29;20215;-50
2021/07/22 04:40:55;;;;;;;18.55;15.75;;;16.60;99.90;;;;;;4935576;29;20208;-50
2021/07/22 04:43:23;;;;;;;17.65;15.20;;;16.70;99.90;;;;;;4935244;29;20239;-46
2021/07/22 04:45:51;;;;;;;17.70;15.32;;;16.80;99.90;;;;;;4935241;29;20310;-47
2021/07/22 04:48:20;;;;;;;23.35;16.15;;;16.90;99.90;;;;;;4935082;29;20295;-47
2021/07/22 04:50:49;;;;;;;19.52;15.07;;;17.00;99.90;;;;;;4935456;29;20311;-47
2021/07/22 04:53:16;;;;;;;19.55;15.55;;;17.00;99.90;;;;;;4935041;29;20208;-52
2021/07/22 04:55:45;;;;;;;17.67;15.07;;;17.10;99.90;;;;;;4935439;29;20212;-51
2021/07/22 04:58:14;;;;;;;17.65;15.55;;;17.20;99.90;;;;;;4935358;29;20220;-48
2021/07/22 05:00:42;;;;;;;20.80;16.42;;;17.30;99.90;;;;;;4935453;29;20236;-49
2021/07/22 05:03:10;;;;;;;20.85;16.80;;;17.30;99.90;;;;;;4935405;29;20668;-50
2021/07/22 05:05:39;;;;;;;19.88;15.98;;;17.40;99.90;;;;;;4935286;29;20212;-48
2021/07/22 05:08:08;;;;;;;18.83;16.90;;;17.40;99.90;;;;;;4934999;29;20271;-51
2021/07/22 05:10:36;;;;;;;18.67;16.35;;;17.50;99.90;;;;;;4935191;29;20254;-47
2021/07/22 05:13:06;;;;;;;19.52;16.05;;;17.60;99.90;;;;;;4934636;29;20715;-50
2021/07/22 05:15:34;;;;;;;17.67;15.98;;;17.70;99.90;;;;;;4934684;29;20266;-49
2021/07/22 05:18:02;;;;;;;18.55;16.20;;;17.80;99.90;;;;;;4935141;29;20247;-52
2021/07/22 05:20:30;;;;;;;16.83;15.02;;;17.90;99.90;;;;;;4934982;29;20243;-47
2021/07/22 05:23:01;;;;;;;19.45;17.42;;;18.00;99.90;;;;;;4934711;29;20267;-50
2021/07/22 05:25:29;;;;;;;17.52;15.82;;;18.00;99.90;;;;;;4935004;29;20215;-50
2021/07/22 05:27:57;;;;;;;19.02;17.00;;;18.10;99.90;;;;;;4934545;29;20216;-48
2021/07/22 05:30:28;;;;;;;23.30;20.63;;;18.20;99.90;;;;;;4935086;29;20695;-50
2021/07/22 05:32:56;;;;;;;24.83;18.85;;;18.20;99.90;;;;;;4934770;29;20626;-47
2021/07/22 05:35:24;;;;;;;22.38;16.27;;;18.10;99.90;;;;;;4934599;29;20311;-48
2021/07/22 05:37:53;;;;;;;19.45;15.95;;;18.20;99.90;;;;;;4934657;29;20342;-50
2021/07/22 05:40:23;;;;;;;19.73;16.75;;;18.30;99.90;;;;;;4934769;29;20240;-45
2021/07/22 05:42:51;;;;;;;24.17;17.45;;;18.40;99.90;;;;;;4934515;29;20212;-49
2021/07/22 05:45:19;;;;;;;19.17;17.13;;;18.40;99.90;;;;;;4934521;29;20291;-50
2021/07/22 05:47:47;;;;;;;19.80;16.95;;;18.50;99.90;;;;;;4934811;29;20222;-48
2021/07/22 05:50:15;;;;;;;19.75;17.45;;;18.60;99.90;;;;;;4934271;29;20236;-47
2021/07/22 05:52:43;;;;;;;18.60;16.70;;;18.60;99.90;;;;;;4934632;29;20646;-50
2021/07/22 05:55:11;;;;;;;23.95;18.60;;;18.70;99.90;;;;;;4934318;29;20642;-47
2021/07/22 05:57:41;;;;;;;20.58;16.52;;;18.70;99.90;;;;;;4934498;29;20212;-48
2021/07/22 06:00:10;;;;;;;18.58;16.48;;;18.70;99.90;;;;;;4936650;29;20307;-47
2021/07/22 06:02:38;;;;;;;18.08;16.02;;;18.90;99.90;;;;;;4938340;29;20223;-50
2021/07/22 06:05:08;;;;;;;17.98;15.55;;;19.00;99.90;;;;;;4938111;29;20259;-50
2021/07/22 06:07:36;;;;;;;19.50;16.42;;;19.10;99.90;;;;;;4937984;29;20248;-50
2021/07/22 06:10:05;;;;;;;16.65;14.63;;;19.20;99.90;;;;;;4937907;29;20216;-47
2021/07/22 06:12:33;;;;;;;18.75;15.20;;;19.30;99.90;;;;;;4937631;29;20303;-49
2021/07/22 06:15:02;;;;;;;15.82;14.13;;;19.40;99.90;;;;;;4937846;29;20220;-49
2021/07/22 06:17:30;;;;;;;17.25;15.18;;;19.50;99.90;;;;;;4937593;29;20293;-47
2021/07/22 06:19:59;;;;;;;19.35;15.23;;;19.50;99.90;;;;;;4937686;29;20620;-49
2021/07/22 06:22:27;;;;;;;16.88;14.32;;;19.60;99.90;;;;;;4937908;29;20307;-52
2021/07/22 06:24:55;;;;;;;17.63;15.45;;;19.60;99.90;;;;;;4937286;29;20234;-48
2021/07/22 06:27:23;;;;;;;16.80;14.27;;;19.50;99.90;;;;;;4937476;29;20300;-48
2021/07/22 06:29:51;;;;;;;16.75;14.93;;;19.60;99.90;;;;;;4937423;29;20223;-49
2021/07/22 06:32:20;;;;;;;20.13;15.52;;;19.70;99.90;;;;;;4937568;29;20621;-52
2021/07/22 06:34:48;;;;;;;22.48;15.85;;;19.70;99.90;;;;;;4937588;29;20299;-46
2021/07/22 06:37:15;;;;;;;20.23;16.45;;;19.80;99.90;;;;;;4937393;29;20417;-48
2021/07/22 06:39:43;;;;;;;21.27;17.08;;;19.90;99.90;;;;;;4937280;29;20251;-46
2021/07/22 06:42:12;;;;;;;17.00;15.25;;;20.00;99.90;;;;;;4937761;29;20307;-50
2021/07/22 06:44:40;;;;;;;18.83;15.15;;;20.00;99.90;;;;;;4937719;29;20615;-51
2021/07/22 06:47:08;;;;;;;17.50;15.63;;;20.00;99.90;;;;;;4937347;29;20279;-52
2021/07/22 06:49:38;;;;;;;18.33;15.63;;;20.00;99.90;;;;;;4937269;29;20212;-47
2021/07/22 06:52:06;;;;;;;18.60;15.75;;;20.10;99.90;;;;;;4937604;29;20642;-49
2021/07/22 06:54:35;;;;;;;16.48;14.73;;;20.20;99.90;;;;;;4937411;29;20245;-51
2021/07/22 06:57:03;;;;;;;18.83;15.48;;;20.20;99.90;;;;;;4937207;29;20216;-47
2021/07/22 06:59:31;;;;;;;17.70;15.82;;;20.30;99.90;;;;;;4937052;29;20216;-48
2021/07/22 07:02:00;;;;;;;17.98;15.88;;;20.50;99.90;;;;;;4936981;29;20207;-47
2021/07/22 07:04:28;;;;;;;20.55;15.20;;;20.50;99.90;;;;;;4936802;29;20259;-53
2021/07/22 07:06:57;;;;;;;17.75;15.30;;;20.60;99.90;;;;;;4937152;29;20638;-48
2021/07/22 07:09:25;;;;;;;48.95;19.70;;;20.60;99.90;;;;;;4936647;29;20326;-52
2021/07/22 07:11:53;;;;;;;37.83;17.02;;;20.80;99.90;;;;;;4936669;29;20263;-50
2021/07/22 07:14:21;;;;;;;20.73;16.92;;;20.90;99.90;;;;;;4936651;29;20668;-54
2021/07/22 07:16:49;;;;;;;23.25;15.73;;;21.00;99.90;;;;;;4936867;29;20222;-50
2021/07/22 07:19:17;;;;;;;17.13;14.30;;;21.10;99.90;;;;;;4936798;29;20299;-46
2021/07/22 07:21:45;;;;;;;28.10;14.30;;;21.10;99.90;;;;;;4936475;29;20251;-46
2021/07/22 07:24:14;;;;;;;19.13;15.32;;;21.20;99.90;;;;;;4936625;29;20804;-49
2021/07/22 07:26:43;;;;;;;16.10;14.52;;;21.30;99.90;;;;;;4936688;29;20635;-50
2021/07/22 07:29:11;;;;;;;19.48;14.57;;;21.30;99.90;;;;;;4936452;29;20315;-48
2021/07/22 07:31:40;;;;;;;18.90;14.40;;;21.40;99.90;;;;;;4936327;29;20255;-47
2021/07/22 07:34:08;;;;;;;17.75;14.75;;;21.50;99.90;;;;;;4936207;29;20618;-47
2021/07/22 07:36:41;;;;;;;15.82;14.05;;;21.60;99.90;;;;;;4936470;29;20291;-51
2021/07/22 07:39:09;;;;;;;17.27;14.88;;;21.80;99.90;;;;;;4936559;29;20240;-50
2021/07/22 07:41:38;;;;;;;18.05;14.65;;;21.90;99.90;;;;;;4936345;29;20713;-50
2021/07/22 07:44:06;;;;;;;18.08;15.20;;;22.00;99.90;;;;;;4936083;29;20232;-50
2021/07/22 07:46:34;;;;;;;21.42;14.38;;;22.10;99.90;;;;;;4936308;29;20242;-50
2021/07/22 07:49:02;;;;;;;17.17;14.57;;;22.10;99.90;;;;;;4936115;29;20248;-51
2021/07/22 07:51:30;;;;;;;16.77;14.50;;;22.10;99.90;;;;;;4936054;29;20347;-52
2021/07/22 07:53:58;;;;;;;16.55;13.45;;;22.20;99.90;;;;;;4935864;29;20672;-49
2021/07/22 07:56:26;;;;;;;15.40;13.80;;;22.20;99.90;;;;;;4935825;29;20230;-50
2021/07/22 07:58:55;;;;;;;20.60;14.68;;;22.40;99.90;;;;;;4935989;29;20222;-49
2021/07/22 08:01:27;;;;;;;17.48;14.18;;;22.60;99.90;;;;;;4935955;29;20278;-52
2021/07/22 08:03:55;;;;;;;15.50;13.30;;;22.70;99.90;;;;;;4935888;29;20307;-51
2021/07/22 08:06:23;;;;;;;13.75;12.32;;;22.80;99.90;;;;;;4935786;29;20347;-49
2021/07/22 08:08:51;;;;;;;15.63;14.00;;;22.90;99.90;;;;;;4935593;29;20410;-49
2021/07/22 08:11:19;;;;;;;18.20;14.85;;;23.00;99.90;;;;;;4935682;29;20208;-50
2021/07/22 08:13:47;;;;;;;16.98;13.43;;;23.10;99.90;;;;;;4935803;29;20585;-51
2021/07/22 08:16:18;;;;;;;16.23;14.13;;;23.20;99.90;;;;;;4937190;29;20208;-51
2021/07/22 08:18:46;;;;;;;25.60;20.67;;;23.30;99.70;;;;;;4935809;29;20217;-51
2021/07/22 08:21:14;;;;;;;18.80;14.00;;;23.40;99.60;;;;;;4935533;29;20643;-53
2021/07/22 08:23:42;;;;;;;16.75;14.25;;;23.40;99.50;;;;;;4934950;29;20731;-49
2021/07/22 08:26:10;;;;;;;17.27;13.27;;;23.40;99.50;;;;;;4935656;29;20242;-52
2021/07/22 08:28:39;;;;;;;16.20;14.23;;;23.40;99.50;;;;;;4935645;29;20236;-45
2021/07/22 08:31:07;;;;;;;16.48;13.35;;;23.60;99.20;;;;;;4935417;29;20306;-49
2021/07/22 08:33:36;;;;;;;15.52;13.85;;;23.70;99.00;;;;;;4935130;29;20652;-52
2021/07/22 08:36:05;;;;;;;15.50;13.93;;;23.80;98.70;;;;;;4935282;29;20578;-47
2021/07/22 08:38:33;;;;;;;16.08;14.15;;;23.80;98.50;;;;;;4935482;29;20222;-50
2021/07/22 08:41:02;;;;;;;17.13;14.48;;;23.90;98.40;;;;;;4935372;29;20589;-47
2021/07/22 08:43:34;;;;;;;18.73;13.23;;;24.10;98.10;;;;;;4935207;29;20774;-48
2021/07/22 08:46:02;;;;;;;19.00;17.02;;;24.10;98.10;;;;;;4934892;29;20326;-51
2021/07/22 08:48:30;;;;;;;15.07;13.48;;;24.30;98.00;;;;;;4935063;29;20305;-51
2021/07/22 08:51:00;;;;;;;15.38;13.57;;;24.20;98.20;;;;;;4935236;29;20662;-49
2021/07/22 08:53:27;;;;;;;13.95;12.48;;;24.30;97.90;;;;;;4935206;29;20322;-51
2021/07/22 08:55:58;;;;;;;21.95;17.80;;;24.30;97.90;;;;;;4935282;29;20630;-50
2021/07/22 08:58:28;;;;;;;16.60;12.27;;;24.40;97.80;;;;;;4935053;29;20247;-49
2021/07/22 09:00:59;;;;;;;14.15;12.27;;;24.50;97.70;;;;;;4935045;29;20242;-48
2021/07/22 09:03:27;;;;;;;18.65;13.05;;;24.60;97.60;;;;;;4935467;29;20283;-50
2021/07/22 09:05:55;;;;;;;13.32;11.80;;;24.60;97.20;;;;;;4934948;29;20333;-51
2021/07/22 09:08:25;;;;;;;13.07;11.68;;;24.60;97.20;;;;;;4935041;29;20676;-47
2021/07/22 09:11:06;;;;;;;13.23;11.90;;;24.70;96.90;;;;;;4935169;29;20298;-49
2021/07/22 09:13:35;;;;;;;14.23;12.23;;;24.80;96.60;;;;;;4934927;29;20702;-48
2021/07/22 09:16:04;;;;;;;20.90;13.02;;;24.80;96.70;;;;;;4935078;29;20240;-52
2021/07/22 09:18:35;;;;;;;13.98;11.48;;;24.70;96.70;;;;;;4934912;29;20236;-52
2021/07/22 09:21:24;;;;;;;14.00;12.57;;;24.80;96.70;;;;;;4935038;29;20224;-49
2021/07/22 09:24:12;;;;;;;14.30;13.00;;;25.00;96.40;;;;;;4931974;29;20236;-52
2021/07/22 09:26:43;;;;;;;12.43;11.10;;;25.00;96.20;;;;;;4934870;29;20236;-50
2021/07/22 09:29:12;;;;;;;13.50;10.60;;;25.20;96.20;;;;;;4934888;29;20247;-51
2021/07/22 09:31:42;;;;;;;11.52;10.45;;;25.30;95.60;;;;;;4934944;29;20308;-46
2021/07/22 09:34:16;;;;;;;11.82;10.60;;;25.50;95.00;;;;;;4936803;29;20303;-50
2021/07/22 09:36:44;;;;;;;11.38;10.15;;;25.70;94.50;;;;;;4938418;29;20246;-50
2021/07/22 09:39:28;;;;;;;12.88;10.35;;;25.90;94.20;;;;;;4938433;29;20642;-48
2021/07/22 09:42:01;;;;;;;14.18;10.63;;;26.00;93.80;;;;;;4938501;29;20298;-49
2021/07/22 09:44:34;;;;;;;12.80;11.32;;;26.00;93.90;;;;;;4938530;29;20247;-48
2021/07/22 09:47:03;;;;;;;12.68;11.02;;;26.00;93.80;;;;;;4938338;29;20259;-50
2021/07/22 09:49:35;;;;;;;13.07;10.40;;;26.00;93.90;;;;;;4938374;29;20572;-47
2021/07/22 09:52:09;;;;;;;11.43;9.75;;;26.00;93.50;;;;;;4938376;29;20211;-49
2021/07/22 09:54:39;;;;;;;13.20;9.80;;;26.10;93.00;;;;;;4938223;29;20653;-49
2021/07/22 09:57:16;;;;;;;11.98;10.75;;;26.20;92.80;;;;;;4937816;29;20251;-53
2021/07/22 09:59:46;;;;;;;12.20;10.93;;;26.20;92.80;;;;;;4937595;29;20621;-49
2021/07/22 10:02:19;;;;;;;12.52;11.15;;;26.20;92.80;;;;;;4937758;29;20799;-54
2021/07/22 10:04:51;;;;;;;12.30;10.60;;;26.20;92.80;;;;;;4937995;29;20212;-48
2021/07/22 10:07:22;;;;;;;13.25;9.77;;;26.00;92.90;;;;;;4937802;29;20255;-48
2021/07/22 10:09:54;;;;;;;11.02;10.02;;;25.80;93.00;;;;;;4937702;29;20243;-48
2021/07/22 10:12:23;;;;;;;10.77;9.75;;;25.70;93.00;;;;;;4937829;29;20216;-49
2021/07/22 10:14:55;;;;;;;11.88;9.80;;;25.60;93.30;;;;;;4937641;29;20673;-50
2021/07/22 10:17:26;;;;;;;10.82;9.75;;;25.50;92.80;;;;;;4937696;29;20748;-50
2021/07/22 10:19:57;;;;;;;12.02;9.70;;;25.50;92.50;;;;;;4937624;29;20681;-50
2021/07/22 10:22:25;;;;;;;12.85;9.85;;;25.40;92.00;;;;;;4938509;29;20256;-48
2021/07/22 10:24:56;;;;;;;10.13;9.13;;;25.40;91.60;;;;;;4937760;29;20303;-46
2021/07/22 10:27:24;;;;;;;9.93;8.48;;;25.40;91.30;;;;;;4937669;29;20236;-47
2021/07/22 10:29:52;;;;;;;11.00;9.63;;;25.60;90.70;;;;;;4937638;29;20303;-47
2021/07/22 10:32:22;;;;;;;10.63;9.35;;;25.90;90.10;;;;;;4937791;29;20208;-48
2021/07/22 10:34:54;;;;;;;13.63;10.50;;;26.10;89.30;;;;;;4937627;29;20306;-48
2021/07/22 10:37:22;;;;;;;11.60;9.85;;;26.40;88.10;;;;;;4938001;29;20307;-47
2021/07/22 10:40:05;;;;;;;11.25;9.85;;;26.50;87.30;;;;;;4937630;29;20282;-49
2021/07/22 10:42:41;;;;;;;11.05;9.82;;;26.80;86.10;;;;;;4937637;29;20216;-48
2021/07/22 10:45:26;;;;;;;10.82;9.70;;;26.90;85.10;;;;;;4936897;29;20216;-51
2021/07/22 10:48:05;;;;;;;11.43;9.88;;;27.00;84.50;;;;;;4935595;29;20250;-46
2021/07/22 10:51:12;;;;;;;10.52;9.43;;;27.00;83.60;;;;;;4937103;29;20275;-52
2021/07/22 10:53:51;;;;;;;9.82;8.88;;;27.00;83.20;;;;;;4929101;29;20243;-51
2021/07/22 10:56:53;;;;;;;13.75;11.05;;;27.20;82.60;;;;;;4936965;29;20649;-47
2021/07/22 10:59:56;;;;;;;11.75;10.55;;;27.30;81.40;;;;;;4936858;29;20680;-52
2021/07/22 11:02:45;;;;;;;10.50;9.50;;;27.40;80.40;;;;;;4937044;29;20243;-47
2021/07/22 11:05:48;;;;;;;13.00;10.70;;;27.40;80.10;;;;;;4936853;29;20594;-46
2021/07/22 11:08:20;;;;;;;11.73;10.63;;;27.30;80.00;;;;;;4924850;29;20750;-48
2021/07/22 11:10:52;;;;;;;12.43;11.32;;;27.30;80.10;;;;;;4936850;29;20240;-50
2021/07/22 11:13:45;;;;;;;11.63;9.98;;;27.30;79.90;;;;;;4937414;29;20224;-49
2021/07/22 11:16:26;;;;;;;11.50;10.40;;;27.40;80.70;;;;;;4936720;29;20562;-49
2021/07/22 11:18:57;;;;;;;14.95;12.13;;;27.50;80.20;;;;;;4937084;29;20603;-49
2021/07/22 11:21:27;;;;;;;11.02;9.98;;;27.80;79.00;;;;;;4936697;29;20636;-46
2021/07/22 11:24:04;;;;;;;11.98;10.77;;;27.90;78.30;;;;;;4936910;29;20579;-47
2021/07/22 11:26:33;;;;;;;11.23;10.02;;;28.00;77.70;;;;;;4936666;29;20338;-47
2021/07/22 11:29:21;;;;;;;10.60;9.45;;;28.10;77.30;;;;;;4936586;29;20208;-47
2021/07/22 11:31:52;;;;;;;14.55;10.45;;;28.20;77.00;;;;;;4936446;29;20227;-52
2021/07/22 11:34:28;;;;;;;13.27;10.82;;;28.20;76.30;;;;;;4936712;29;20240;-47
2021/07/22 11:36:57;;;;;;;12.30;11.13;;;28.40;75.80;;;;;;4936336;29;20231;-49
2021/07/22 11:39:35;;;;;;;11.18;9.82;;;28.40;75.20;;;;;;4936374;29;20212;-49
2021/07/22 11:42:06;;;;;;;12.77;11.05;;;28.40;74.90;;;;;;4936580;29;20226;-48
2021/07/22 11:44:34;;;;;;;11.57;10.48;;;28.20;75.30;;;;;;4936632;29;20348;-51
2021/07/22 11:47:09;;;;;;;15.80;10.57;;;28.00;75.50;;;;;;4936199;29;20276;-47
2021/07/22 11:49:37;;;;;;;11.88;10.75;;;27.80;76.10;;;;;;4936087;29;20302;-49
2021/07/22 11:52:06;;;;;;;12.65;10.73;;;27.70;76.70;;;;;;4935995;29;20287;-51
2021/07/22 11:54:34;;;;;;;12.43;11.32;;;27.60;77.10;;;;;;4936494;29;20384;-48
2021/07/22 11:57:02;;;;;;;11.05;9.95;;;27.50;77.60;;;;;;4935193;29;20244;-50
2021/07/22 11:59:33;;;;;;;12.93;9.85;;;27.50;77.60;;;;;;4936056;29;20286;-51
2021/07/22 12:02:05;;;;;;;11.50;10.35;;;27.60;77.60;;;;;;4935709;29;20216;-46
2021/07/22 12:04:35;;;;;;;11.50;10.13;;;27.60;78.20;;;;;;4935646;29;20220;-50
2021/07/22 12:07:06;;;;;;;11.80;10.60;;;27.70;77.50;;;;;;4935791;29;20688;-47
2021/07/22 12:09:34;;;;;;;12.10;10.98;;;27.80;77.10;;;;;;4935905;29;20220;-50
2021/07/22 12:12:05;;;;;;;12.35;10.98;;;28.10;76.70;;;;;;4935632;29;20243;-51
2021/07/22 12:14:35;;;;;;;12.07;10.98;;;28.40;75.60;;;;;;4935689;29;20220;-48
2021/07/22 12:17:07;;;;;;;11.15;10.07;;;28.50;74.60;;;;;;4935920;29;20223;-51
2021/07/22 12:19:48;;;;;;;11.27;10.15;;;28.80;73.60;;;;;;5089511;28;21131;-50
2021/07/22 12:22:20;;;;;;;11.82;10.70;;;28.90;72.80;;;;;;5089588;28;20757;-47
2021/07/22 12:24:49;;;;;;;11.73;10.52;;;29.10;72.30;;;;;;5089498;28;20638;-48
2021/07/22 12:27:31;;;;;;;11.60;10.60;;;28.90;72.40;;;;;;5089525;28;20317;-49
2021/07/22 12:30:00;;;;;;;11.30;10.30;;;28.80;72.60;;;;;;5089563;28;20238;-46
2021/07/22 12:32:29;;;;;;;11.43;10.43;;;28.80;72.80;;;;;;5089389;28;20210;-50
2021/07/22 12:34:59;;;;;;;12.77;11.35;;;28.70;72.60;;;;;;5089371;28;20289;-46
2021/07/22 12:37:52;;;;;;;11.40;10.30;;;28.60;73.00;;;;;;5088925;28;20302;-49
2021/07/22 12:40:30;;;;;;;11.90;10.85;;;28.50;73.00;;;;;;5089197;28;20685;-46
2021/07/22 12:42:59;;;;;;;12.02;10.82;;;28.40;73.30;;;;;;5089100;28;20582;-49